sensor_id;sensor_type;location;lat;lon;timestamp;P1;durP1;ratioP1;P2;durP2;ratioP2
11582;SDS011;34299;50.820;4.548;2023-06-22T00:02:01;4.13;;;3.30;;
11582;SDS011;34299;50.820;4.548;2023-06-22T00:04:30;5.10;;;3.67;;
11582;SDS011;34299;50.820;4.548;2023-06-22T00:06:57;4.13;;;3.40;;
11582;SDS011;34299;50.820;4.548;2023-06-22T00:09:24;7.10;;;3.50;;
11582;SDS011;34299;50.820;4.548;2023-06-22T00:11:51;3.70;;;3.00;;
11582;SDS011;34299;50.820;4.548;2023-06-22T00:14:18;5.33;;;3.43;;
11582;SDS011;34299;50.820;4.548;2023-06-22T00:16:45;3.80;;;3.07;;
11582;SDS011;34299;50.820;4.548;2023-06-22T00:19:13;6.27;;;3.47;;
11582;SDS011;34299;50.820;4.548;2023-06-22T00:21:42;8.73;;;3.23;;
11582;SDS011;34299;50.820;4.548;2023-06-22T00:24:12;4.93;;;3.97;;
11582;SDS011;34299;50.820;4.548;2023-06-22T00:26:39;5.43;;;4.37;;
11582;SDS011;34299;50.820;4.548;2023-06-22T00:29:05;5.63;;;4.50;;
11582;SDS011;34299;50.820;4.548;2023-06-22T00:31:32;6.20;;;4.60;;
11582;SDS011;34299;50.820;4.548;2023-06-22T00:34:00;6.67;;;4.20;;
11582;SDS011;34299;50.820;4.548;2023-06-22T00:36:27;5.07;;;4.00;;
11582;SDS011;34299;50.820;4.548;2023-06-22T00:38:55;6.27;;;4.10;;
11582;SDS011;34299;50.820;4.548;2023-06-22T00:41:22;6.93;;;3.87;;
11582;SDS011;34299;50.820;4.548;2023-06-22T00:43:49;5.53;;;4.03;;
11582;SDS011;34299;50.820;4.548;2023-06-22T00:46:16;4.23;;;3.83;;
11582;SDS011;34299;50.820;4.548;2023-06-22T00:48:43;6.20;;;4.57;;
11582;SDS011;34299;50.820;4.548;2023-06-22T00:51:10;7.10;;;5.37;;
11582;SDS011;34299;50.820;4.548;2023-06-22T00:53:38;9.13;;;5.07;;
11582;SDS011;34299;50.820;4.548;2023-06-22T00:56:07;7.00;;;4.60;;
11582;SDS011;34299;50.820;4.548;2023-06-22T00:58:37;6.07;;;4.67;;
11582;SDS011;34299;50.820;4.548;2023-06-22T01:01:06;5.40;;;4.43;;
11582;SDS011;34299;50.820;4.548;2023-06-22T01:03:34;7.33;;;4.30;;
11582;SDS011;34299;50.820;4.548;2023-06-22T01:06:02;7.53;;;4.23;;
11582;SDS011;34299;50.820;4.548;2023-06-22T01:08:38;5.10;;;3.87;;
11582;SDS011;34299;50.820;4.548;2023-06-22T01:11:16;8.27;;;4.10;;
11582;SDS011;34299;50.820;4.548;2023-06-22T01:13:48;4.23;;;3.47;;
11582;SDS011;34299;50.820;4.548;2023-06-22T01:16:23;6.90;;;3.87;;
11582;SDS011;34299;50.820;4.548;2023-06-22T01:18:54;4.83;;;3.70;;
11582;SDS011;34299;50.820;4.548;2023-06-22T01:21:23;6.77;;;4.00;;
11582;SDS011;34299;50.820;4.548;2023-06-22T01:23:57;7.07;;;4.60;;
11582;SDS011;34299;50.820;4.548;2023-06-22T01:26:35;8.00;;;4.67;;
11582;SDS011;34299;50.820;4.548;2023-06-22T01:29:07;6.87;;;4.67;;
11582;SDS011;34299;50.820;4.548;2023-06-22T01:31:38;5.90;;;4.37;;
11582;SDS011;34299;50.820;4.548;2023-06-22T01:34:07;6.13;;;4.17;;
11582;SDS011;34299;50.820;4.548;2023-06-22T01:36:36;7.10;;;4.73;;
11582;SDS011;34299;50.820;4.548;2023-06-22T01:39:04;7.00;;;4.30;;
11582;SDS011;34299;50.820;4.548;2023-06-22T01:41:33;5.23;;;4.17;;
11582;SDS011;34299;50.820;4.548;2023-06-22T01:44:02;8.67;;;4.20;;
11582;SDS011;34299;50.820;4.548;2023-06-22T01:46:33;7.07;;;4.33;;
11582;SDS011;34299;50.820;4.548;2023-06-22T01:49:01;5.37;;;4.17;;
11582;SDS011;34299;50.820;4.548;2023-06-22T01:51:29;7.47;;;4.43;;
11582;SDS011;34299;50.820;4.548;2023-06-22T01:53:56;6.80;;;4.33;;
11582;SDS011;34299;50.820;4.548;2023-06-22T01:56:23;6.10;;;4.03;;
11582;SDS011;34299;50.820;4.548;2023-06-22T01:58:54;7.03;;;4.27;;
11582;SDS011;34299;50.820;4.548;2023-06-22T02:01:26;6.90;;;4.50;;
11582;SDS011;34299;50.820;4.548;2023-06-22T02:04:00;6.40;;;4.57;;
11582;SDS011;34299;50.820;4.548;2023-06-22T02:06:32;5.67;;;4.30;;
11582;SDS011;34299;50.820;4.548;2023-06-22T02:09:05;4.87;;;3.93;;
11582;SDS011;34299;50.820;4.548;2023-06-22T02:11:34;6.13;;;4.13;;
11582;SDS011;34299;50.820;4.548;2023-06-22T02:14:03;5.60;;;4.47;;
11582;SDS011;34299;50.820;4.548;2023-06-22T02:16:32;7.13;;;4.47;;
11582;SDS011;34299;50.820;4.548;2023-06-22T02:19:00;4.40;;;3.83;;
11582;SDS011;34299;50.820;4.548;2023-06-22T02:21:29;7.30;;;4.57;;
11582;SDS011;34299;50.820;4.548;2023-06-22T02:23:56;9.03;;;4.33;;
11582;SDS011;34299;50.820;4.548;2023-06-22T02:26:23;6.80;;;4.20;;
11582;SDS011;34299;50.820;4.548;2023-06-22T02:28:50;6.90;;;4.27;;
11582;SDS011;34299;50.820;4.548;2023-06-22T02:31:18;5.60;;;4.10;;
11582;SDS011;34299;50.820;4.548;2023-06-22T02:33:46;5.27;;;3.97;;
11582;SDS011;34299;50.820;4.548;2023-06-22T02:36:15;8.03;;;4.37;;
11582;SDS011;34299;50.820;4.548;2023-06-22T02:38:47;6.43;;;3.87;;
11582;SDS011;34299;50.820;4.548;2023-06-22T02:41:14;6.40;;;4.03;;
11582;SDS011;34299;50.820;4.548;2023-06-22T02:43:43;5.23;;;3.93;;
11582;SDS011;34299;50.820;4.548;2023-06-22T02:46:11;4.67;;;3.53;;
11582;SDS011;34299;50.820;4.548;2023-06-22T02:48:38;5.93;;;3.77;;
11582;SDS011;34299;50.820;4.548;2023-06-22T02:51:07;5.70;;;4.00;;
11582;SDS011;34299;50.820;4.548;2023-06-22T02:53:35;5.60;;;3.73;;
11582;SDS011;34299;50.820;4.548;2023-06-22T02:56:02;9.97;;;4.10;;
11582;SDS011;34299;50.820;4.548;2023-06-22T02:58:30;5.40;;;3.87;;
11582;SDS011;34299;50.820;4.548;2023-06-22T03:01:03;6.90;;;4.00;;
11582;SDS011;34299;50.820;4.548;2023-06-22T03:03:31;4.33;;;3.63;;
11582;SDS011;34299;50.820;4.548;2023-06-22T03:05:58;4.63;;;3.53;;
11582;SDS011;34299;50.820;4.548;2023-06-22T03:08:28;4.70;;;3.60;;
11582;SDS011;34299;50.820;4.548;2023-06-22T03:10:56;6.27;;;3.27;;
11582;SDS011;34299;50.820;4.548;2023-06-22T03:13:23;5.83;;;3.47;;
11582;SDS011;34299;50.820;4.548;2023-06-22T03:15:50;4.93;;;3.90;;
11582;SDS011;34299;50.820;4.548;2023-06-22T03:18:17;4.30;;;3.80;;
11582;SDS011;34299;50.820;4.548;2023-06-22T03:20:47;3.67;;;3.30;;
11582;SDS011;34299;50.820;4.548;2023-06-22T03:23:14;7.37;;;3.90;;
11582;SDS011;34299;50.820;4.548;2023-06-22T03:25:43;5.17;;;3.27;;
11582;SDS011;34299;50.820;4.548;2023-06-22T03:28:10;4.77;;;3.73;;
11582;SDS011;34299;50.820;4.548;2023-06-22T03:30:38;4.97;;;3.60;;
11582;SDS011;34299;50.820;4.548;2023-06-22T03:33:05;5.30;;;3.87;;
11582;SDS011;34299;50.820;4.548;2023-06-22T03:35:32;6.17;;;4.07;;
11582;SDS011;34299;50.820;4.548;2023-06-22T03:37:59;4.20;;;3.13;;
11582;SDS011;34299;50.820;4.548;2023-06-22T03:40:27;5.67;;;3.70;;
11582;SDS011;34299;50.820;4.548;2023-06-22T03:42:56;5.53;;;4.30;;
11582;SDS011;34299;50.820;4.548;2023-06-22T03:45:23;6.13;;;4.13;;
11582;SDS011;34299;50.820;4.548;2023-06-22T03:47:50;5.73;;;3.80;;
11582;SDS011;34299;50.820;4.548;2023-06-22T03:50:18;6.23;;;4.20;;
11582;SDS011;34299;50.820;4.548;2023-06-22T03:52:46;5.47;;;3.73;;
11582;SDS011;34299;50.820;4.548;2023-06-22T03:55:13;6.27;;;3.73;;
11582;SDS011;34299;50.820;4.548;2023-06-22T03:57:40;5.47;;;3.60;;
11582;SDS011;34299;50.820;4.548;2023-06-22T04:00:10;5.17;;;4.10;;
11582;SDS011;34299;50.820;4.548;2023-06-22T04:02:37;8.87;;;4.33;;
11582;SDS011;34299;50.820;4.548;2023-06-22T04:05:05;5.77;;;4.07;;
11582;SDS011;34299;50.820;4.548;2023-06-22T04:07:32;7.33;;;4.90;;
11582;SDS011;34299;50.820;4.548;2023-06-22T04:09:59;6.60;;;4.77;;
11582;SDS011;34299;50.820;4.548;2023-06-22T04:12:26;8.20;;;5.10;;
11582;SDS011;34299;50.820;4.548;2023-06-22T04:14:54;7.13;;;5.13;;
11582;SDS011;34299;50.820;4.548;2023-06-22T04:17:22;7.40;;;4.77;;
11582;SDS011;34299;50.820;4.548;2023-06-22T04:19:50;6.07;;;4.70;;
11582;SDS011;34299;50.820;4.548;2023-06-22T04:22:17;6.73;;;5.40;;
11582;SDS011;34299;50.820;4.548;2023-06-22T04:24:46;8.50;;;5.47;;
11582;SDS011;34299;50.820;4.548;2023-06-22T04:27:13;8.90;;;5.57;;
11582;SDS011;34299;50.820;4.548;2023-06-22T04:29:41;9.83;;;5.50;;
11582;SDS011;34299;50.820;4.548;2023-06-22T04:32:14;9.97;;;5.03;;
11582;SDS011;34299;50.820;4.548;2023-06-22T04:34:42;11.83;;;5.07;;
11582;SDS011;34299;50.820;4.548;2023-06-22T04:37:10;5.87;;;4.40;;
11582;SDS011;34299;50.820;4.548;2023-06-22T04:39:40;7.73;;;4.73;;
11582;SDS011;34299;50.820;4.548;2023-06-22T04:42:07;8.77;;;5.40;;
11582;SDS011;34299;50.820;4.548;2023-06-22T04:44:35;6.70;;;5.30;;
11582;SDS011;34299;50.820;4.548;2023-06-22T04:47:02;9.30;;;5.10;;
11582;SDS011;34299;50.820;4.548;2023-06-22T04:49:34;8.03;;;4.80;;
11582;SDS011;34299;50.820;4.548;2023-06-22T04:52:05;7.13;;;4.03;;
11582;SDS011;34299;50.820;4.548;2023-06-22T04:54:32;7.47;;;4.40;;
11582;SDS011;34299;50.820;4.548;2023-06-22T04:56:59;8.10;;;4.57;;
11582;SDS011;34299;50.820;4.548;2023-06-22T04:59:27;6.70;;;4.83;;
11582;SDS011;34299;50.820;4.548;2023-06-22T05:01:56;8.60;;;4.67;;
11582;SDS011;34299;50.820;4.548;2023-06-22T05:04:23;7.17;;;5.60;;
11582;SDS011;34299;50.820;4.548;2023-06-22T05:06:51;7.70;;;5.10;;
11582;SDS011;34299;50.820;4.548;2023-06-22T05:09:19;8.23;;;4.80;;
11582;SDS011;34299;50.820;4.548;2023-06-22T05:11:47;8.83;;;4.90;;
11582;SDS011;34299;50.820;4.548;2023-06-22T05:14:14;7.80;;;5.43;;
11582;SDS011;34299;50.820;4.548;2023-06-22T05:16:42;8.30;;;5.33;;
11582;SDS011;34299;50.820;4.548;2023-06-22T05:19:09;10.00;;;5.67;;
11582;SDS011;34299;50.820;4.548;2023-06-22T05:21:37;9.03;;;5.70;;
11582;SDS011;34299;50.820;4.548;2023-06-22T05:24:05;7.57;;;5.30;;
11582;SDS011;34299;50.820;4.548;2023-06-22T05:26:33;8.70;;;5.70;;
11582;SDS011;34299;50.820;4.548;2023-06-22T05:29:02;7.50;;;5.73;;
11582;SDS011;34299;50.820;4.548;2023-06-22T05:31:29;7.73;;;5.77;;
11582;SDS011;34299;50.820;4.548;2023-06-22T05:33:57;10.27;;;6.07;;
11582;SDS011;34299;50.820;4.548;2023-06-22T05:36:25;8.97;;;5.40;;
11582;SDS011;34299;50.820;4.548;2023-06-22T05:38:51;9.20;;;5.70;;
11582;SDS011;34299;50.820;4.548;2023-06-22T05:41:19;10.93;;;6.40;;
11582;SDS011;34299;50.820;4.548;2023-06-22T05:43:47;7.73;;;5.53;;
11582;SDS011;34299;50.820;4.548;2023-06-22T05:46:14;8.13;;;6.40;;
11582;SDS011;34299;50.820;4.548;2023-06-22T05:48:42;10.50;;;6.73;;
11582;SDS011;34299;50.820;4.548;2023-06-22T05:51:09;9.30;;;7.27;;
11582;SDS011;34299;50.820;4.548;2023-06-22T05:53:36;7.57;;;5.83;;
11582;SDS011;34299;50.820;4.548;2023-06-22T05:56:03;9.47;;;6.03;;
11582;SDS011;34299;50.820;4.548;2023-06-22T05:58:30;9.70;;;6.80;;
11582;SDS011;34299;50.820;4.548;2023-06-22T06:00:58;11.87;;;7.40;;
11582;SDS011;34299;50.820;4.548;2023-06-22T06:03:26;12.63;;;6.80;;
11582;SDS011;34299;50.820;4.548;2023-06-22T06:05:53;11.00;;;6.93;;
11582;SDS011;34299;50.820;4.548;2023-06-22T06:08:20;9.17;;;6.27;;
11582;SDS011;34299;50.820;4.548;2023-06-22T06:10:47;9.63;;;7.63;;
11582;SDS011;34299;50.820;4.548;2023-06-22T06:13:15;10.43;;;6.93;;
11582;SDS011;34299;50.820;4.548;2023-06-22T06:15:42;9.07;;;6.93;;
11582;SDS011;34299;50.820;4.548;2023-06-22T06:18:10;12.80;;;7.47;;
11582;SDS011;34299;50.820;4.548;2023-06-22T06:20:37;13.33;;;7.20;;
11582;SDS011;34299;50.820;4.548;2023-06-22T06:23:04;9.70;;;6.93;;
11582;SDS011;34299;50.820;4.548;2023-06-22T06:25:31;8.40;;;7.33;;
11582;SDS011;34299;50.820;4.548;2023-06-22T06:27:58;13.20;;;7.07;;
11582;SDS011;34299;50.820;4.548;2023-06-22T06:30:25;10.83;;;8.10;;
11582;SDS011;34299;50.820;4.548;2023-06-22T06:32:52;11.73;;;8.57;;
11582;SDS011;34299;50.820;4.548;2023-06-22T06:35:21;9.80;;;7.77;;
11582;SDS011;34299;50.820;4.548;2023-06-22T06:37:49;11.60;;;8.47;;
11582;SDS011;34299;50.820;4.548;2023-06-22T06:40:17;11.97;;;8.00;;
11582;SDS011;34299;50.820;4.548;2023-06-22T06:42:45;12.27;;;7.97;;
11582;SDS011;34299;50.820;4.548;2023-06-22T06:45:14;10.83;;;7.77;;
11582;SDS011;34299;50.820;4.548;2023-06-22T06:47:42;12.83;;;8.83;;
11582;SDS011;34299;50.820;4.548;2023-06-22T06:50:10;12.27;;;8.73;;
11582;SDS011;34299;50.820;4.548;2023-06-22T06:52:39;12.77;;;8.60;;
11582;SDS011;34299;50.820;4.548;2023-06-22T06:55:07;14.97;;;8.40;;
11582;SDS011;34299;50.820;4.548;2023-06-22T06:57:36;12.27;;;8.40;;
11582;SDS011;34299;50.820;4.548;2023-06-22T07:00:04;14.13;;;8.70;;
11582;SDS011;34299;50.820;4.548;2023-06-22T07:02:37;11.73;;;8.20;;
11582;SDS011;34299;50.820;4.548;2023-06-22T07:05:04;11.80;;;8.80;;
11582;SDS011;34299;50.820;4.548;2023-06-22T07:07:32;13.10;;;8.77;;
11582;SDS011;34299;50.820;4.548;2023-06-22T07:10:00;10.13;;;7.90;;
11582;SDS011;34299;50.820;4.548;2023-06-22T07:12:28;13.97;;;8.93;;
11582;SDS011;34299;50.820;4.548;2023-06-22T07:15:00;11.87;;;8.43;;
11582;SDS011;34299;50.820;4.548;2023-06-22T07:17:27;13.40;;;8.50;;
11582;SDS011;34299;50.820;4.548;2023-06-22T07:19:55;11.90;;;9.23;;
11582;SDS011;34299;50.820;4.548;2023-06-22T07:22:22;15.90;;;9.13;;
11582;SDS011;34299;50.820;4.548;2023-06-22T07:24:49;12.30;;;8.40;;
11582;SDS011;34299;50.820;4.548;2023-06-22T07:27:18;16.17;;;8.53;;
11582;SDS011;34299;50.820;4.548;2023-06-22T07:29:46;12.93;;;7.63;;
11582;SDS011;34299;50.820;4.548;2023-06-22T07:32:13;11.63;;;8.20;;
11582;SDS011;34299;50.820;4.548;2023-06-22T07:34:41;13.47;;;7.67;;
11582;SDS011;34299;50.820;4.548;2023-06-22T07:37:08;11.97;;;7.83;;
11582;SDS011;34299;50.820;4.548;2023-06-22T07:39:36;13.83;;;7.77;;
11582;SDS011;34299;50.820;4.548;2023-06-22T07:42:03;10.23;;;7.97;;
11582;SDS011;34299;50.820;4.548;2023-06-22T07:44:32;12.63;;;8.23;;
11582;SDS011;34299;50.820;4.548;2023-06-22T07:46:59;15.33;;;8.47;;
11582;SDS011;34299;50.820;4.548;2023-06-22T07:49:27;11.33;;;8.77;;
11582;SDS011;34299;50.820;4.548;2023-06-22T07:51:54;11.90;;;8.50;;
11582;SDS011;34299;50.820;4.548;2023-06-22T07:54:21;10.30;;;8.47;;
11582;SDS011;34299;50.820;4.548;2023-06-22T07:56:48;13.93;;;9.00;;
11582;SDS011;34299;50.820;4.548;2023-06-22T07:59:15;12.00;;;7.77;;
11582;SDS011;34299;50.820;4.548;2023-06-22T08:01:44;14.10;;;9.23;;
11582;SDS011;34299;50.820;4.548;2023-06-22T08:04:11;11.67;;;7.77;;
11582;SDS011;34299;50.820;4.548;2023-06-22T08:06:38;9.33;;;7.80;;
11582;SDS011;34299;50.820;4.548;2023-06-22T08:09:05;10.70;;;9.20;;
11582;SDS011;34299;50.820;4.548;2023-06-22T08:11:31;9.77;;;7.20;;
11582;SDS011;34299;50.820;4.548;2023-06-22T08:13:59;12.03;;;7.93;;
11582;SDS011;34299;50.820;4.548;2023-06-22T08:16:26;12.67;;;8.03;;
11582;SDS011;34299;50.820;4.548;2023-06-22T08:18:55;12.27;;;8.63;;
11582;SDS011;34299;50.820;4.548;2023-06-22T08:21:23;12.00;;;8.93;;
11582;SDS011;34299;50.820;4.548;2023-06-22T08:23:59;10.87;;;8.37;;
11582;SDS011;34299;50.820;4.548;2023-06-22T08:26:40;14.00;;;8.10;;
11582;SDS011;34299;50.820;4.548;2023-06-22T08:29:08;8.97;;;7.40;;
11582;SDS011;34299;50.820;4.548;2023-06-22T08:31:40;10.20;;;7.53;;
11582;SDS011;34299;50.820;4.548;2023-06-22T08:34:19;8.93;;;7.83;;
11582;SDS011;34299;50.820;4.548;2023-06-22T08:36:57;8.97;;;7.07;;
11582;SDS011;34299;50.820;4.548;2023-06-22T08:39:26;13.80;;;7.70;;
11582;SDS011;34299;50.820;4.548;2023-06-22T08:42:04;9.53;;;7.27;;
11582;SDS011;34299;50.820;4.548;2023-06-22T08:44:34;10.60;;;7.70;;
11582;SDS011;34299;50.820;4.548;2023-06-22T08:47:06;12.57;;;8.83;;
11582;SDS011;34299;50.820;4.548;2023-06-22T08:52:43;12.60;;;8.13;;
11582;SDS011;34299;50.820;4.548;2023-06-22T08:55:19;10.67;;;8.40;;
11582;SDS011;34299;50.820;4.548;2023-06-22T08:57:51;12.63;;;7.37;;
11582;SDS011;34299;50.820;4.548;2023-06-22T09:00:20;12.20;;;8.57;;
11582;SDS011;34299;50.820;4.548;2023-06-22T09:03:00;11.13;;;7.67;;
11582;SDS011;34299;50.820;4.548;2023-06-22T09:05:41;11.13;;;7.70;;
11582;SDS011;34299;50.820;4.548;2023-06-22T09:08:20;11.70;;;7.57;;
11582;SDS011;34299;50.820;4.548;2023-06-22T09:10:56;11.30;;;7.47;;
11582;SDS011;34299;50.820;4.548;2023-06-22T09:13:40;12.20;;;7.13;;
11582;SDS011;34299;50.820;4.548;2023-06-22T09:16:10;9.73;;;6.60;;
11582;SDS011;34299;50.820;4.548;2023-06-22T09:18:42;8.93;;;6.37;;
11582;SDS011;34299;50.820;4.548;2023-06-22T09:21:17;7.93;;;6.13;;
11582;SDS011;34299;50.820;4.548;2023-06-22T09:23:45;11.27;;;7.43;;
11582;SDS011;34299;50.820;4.548;2023-06-22T09:26:19;8.73;;;6.63;;
11582;SDS011;34299;50.820;4.548;2023-06-22T09:28:52;8.80;;;6.53;;
11582;SDS011;34299;50.820;4.548;2023-06-22T09:31:30;11.53;;;7.63;;
11582;SDS011;34299;50.820;4.548;2023-06-22T09:34:02;8.70;;;7.67;;
11582;SDS011;34299;50.820;4.548;2023-06-22T09:36:38;10.53;;;7.33;;
11582;SDS011;34299;50.820;4.548;2023-06-22T09:39:07;9.83;;;7.73;;
11582;SDS011;34299;50.820;4.548;2023-06-22T09:41:39;9.17;;;7.17;;
11582;SDS011;34299;50.820;4.548;2023-06-22T09:44:06;10.53;;;8.00;;
11582;SDS011;34299;50.820;4.548;2023-06-22T09:47:24;11.33;;;8.00;;
11582;SDS011;34299;50.820;4.548;2023-06-22T09:49:57;10.93;;;7.47;;
11582;SDS011;34299;50.820;4.548;2023-06-22T09:52:40;11.20;;;8.27;;
11582;SDS011;34299;50.820;4.548;2023-06-22T09:55:09;13.07;;;7.57;;
11582;SDS011;34299;50.820;4.548;2023-06-22T09:57:37;10.80;;;8.07;;
11582;SDS011;34299;50.820;4.548;2023-06-22T10:00:04;10.73;;;8.13;;
11582;SDS011;34299;50.820;4.548;2023-06-22T10:02:37;12.03;;;7.87;;
11582;SDS011;34299;50.820;4.548;2023-06-22T10:05:05;10.30;;;8.47;;
11582;SDS011;34299;50.820;4.548;2023-06-22T10:07:34;11.40;;;8.27;;
11582;SDS011;34299;50.820;4.548;2023-06-22T10:10:05;12.67;;;7.97;;
11582;SDS011;34299;50.820;4.548;2023-06-22T10:12:32;10.93;;;7.57;;
11582;SDS011;34299;50.820;4.548;2023-06-22T10:15:00;10.23;;;7.57;;
11582;SDS011;34299;50.820;4.548;2023-06-22T10:17:27;9.47;;;7.43;;
11582;SDS011;34299;50.820;4.548;2023-06-22T10:19:54;11.80;;;7.37;;
11582;SDS011;34299;50.820;4.548;2023-06-22T10:22:23;9.83;;;7.70;;
11582;SDS011;34299;50.820;4.548;2023-06-22T10:24:52;12.53;;;7.73;;
11582;SDS011;34299;50.820;4.548;2023-06-22T10:27:19;9.80;;;7.77;;
11582;SDS011;34299;50.820;4.548;2023-06-22T10:29:46;12.33;;;8.00;;
11582;SDS011;34299;50.820;4.548;2023-06-22T10:32:14;10.90;;;7.90;;
11582;SDS011;34299;50.820;4.548;2023-06-22T10:34:41;11.40;;;8.03;;
11582;SDS011;34299;50.820;4.548;2023-06-22T10:37:08;11.40;;;8.07;;
11582;SDS011;34299;50.820;4.548;2023-06-22T10:39:36;13.10;;;8.00;;
11582;SDS011;34299;50.820;4.548;2023-06-22T10:42:04;14.47;;;8.50;;
11582;SDS011;34299;50.820;4.548;2023-06-22T10:44:32;11.83;;;8.40;;
11582;SDS011;34299;50.820;4.548;2023-06-22T10:46:59;16.53;;;9.07;;
11582;SDS011;34299;50.820;4.548;2023-06-22T10:49:26;13.90;;;9.10;;
11582;SDS011;34299;50.820;4.548;2023-06-22T10:51:53;13.13;;;8.43;;
11582;SDS011;34299;50.820;4.548;2023-06-22T10:54:21;14.47;;;8.83;;
11582;SDS011;34299;50.820;4.548;2023-06-22T10:56:48;15.27;;;10.03;;
11582;SDS011;34299;50.820;4.548;2023-06-22T10:59:17;14.33;;;11.00;;
11582;SDS011;34299;50.820;4.548;2023-06-22T11:01:46;13.70;;;9.10;;
11582;SDS011;34299;50.820;4.548;2023-06-22T11:04:13;14.83;;;11.27;;
11582;SDS011;34299;50.820;4.548;2023-06-22T11:06:42;19.63;;;12.43;;
11582;SDS011;34299;50.820;4.548;2023-06-22T11:09:09;18.10;;;12.37;;
11582;SDS011;34299;50.820;4.548;2023-06-22T11:11:37;19.60;;;12.47;;
11582;SDS011;34299;50.820;4.548;2023-06-22T11:14:04;20.90;;;14.10;;
11582;SDS011;34299;50.820;4.548;2023-06-22T11:16:32;23.17;;;12.43;;
11582;SDS011;34299;50.820;4.548;2023-06-22T11:19:00;18.23;;;12.83;;
11582;SDS011;34299;50.820;4.548;2023-06-22T11:21:28;19.60;;;12.20;;
11582;SDS011;34299;50.820;4.548;2023-06-22T11:23:56;18.07;;;12.63;;
11582;SDS011;34299;50.820;4.548;2023-06-22T11:26:23;19.27;;;14.27;;
11582;SDS011;34299;50.820;4.548;2023-06-22T11:28:52;19.60;;;13.87;;
11582;SDS011;34299;50.820;4.548;2023-06-22T11:31:19;19.53;;;14.17;;
11582;SDS011;34299;50.820;4.548;2023-06-22T11:33:48;20.07;;;14.70;;
11582;SDS011;34299;50.820;4.548;2023-06-22T11:36:15;23.03;;;15.90;;
11582;SDS011;34299;50.820;4.548;2023-06-22T11:38:43;21.90;;;16.20;;
11582;SDS011;34299;50.820;4.548;2023-06-22T11:41:10;24.10;;;15.60;;
11582;SDS011;34299;50.820;4.548;2023-06-22T11:43:37;24.07;;;15.30;;
11582;SDS011;34299;50.820;4.548;2023-06-22T11:46:04;26.40;;;16.27;;
11582;SDS011;34299;50.820;4.548;2023-06-22T11:51:41;25.07;;;17.87;;
11582;SDS011;34299;50.820;4.548;2023-06-22T11:54:08;25.17;;;18.10;;
11582;SDS011;34299;50.820;4.548;2023-06-22T11:56:35;26.50;;;17.50;;
11582;SDS011;34299;50.820;4.548;2023-06-22T11:59:02;24.60;;;17.97;;
11582;SDS011;34299;50.820;4.548;2023-06-22T12:01:30;25.90;;;17.90;;
11582;SDS011;34299;50.820;4.548;2023-06-22T12:03:58;26.27;;;18.27;;
11582;SDS011;34299;50.820;4.548;2023-06-22T12:06:25;27.67;;;18.77;;
11582;SDS011;34299;50.820;4.548;2023-06-22T12:08:54;23.47;;;16.67;;
11582;SDS011;34299;50.820;4.548;2023-06-22T12:11:21;23.67;;;16.37;;
11582;SDS011;34299;50.820;4.548;2023-06-22T12:13:48;25.00;;;17.10;;
11582;SDS011;34299;50.820;4.548;2023-06-22T12:16:16;30.53;;;17.63;;
11582;SDS011;34299;50.820;4.548;2023-06-22T12:18:43;27.37;;;17.47;;
11582;SDS011;34299;50.820;4.548;2023-06-22T12:21:10;24.07;;;15.60;;
11582;SDS011;34299;50.820;4.548;2023-06-22T12:23:38;23.10;;;16.30;;
11582;SDS011;34299;50.820;4.548;2023-06-22T12:26:06;25.20;;;17.20;;
11582;SDS011;34299;50.820;4.548;2023-06-22T12:28:33;25.10;;;16.27;;
11582;SDS011;34299;50.820;4.548;2023-06-22T12:31:01;22.17;;;16.30;;
11582;SDS011;34299;50.820;4.548;2023-06-22T12:33:28;21.83;;;16.43;;
11582;SDS011;34299;50.820;4.548;2023-06-22T12:35:55;24.07;;;15.53;;
11582;SDS011;34299;50.820;4.548;2023-06-22T12:38:23;28.23;;;16.97;;
11582;SDS011;34299;50.820;4.548;2023-06-22T12:40:50;24.57;;;16.57;;
11582;SDS011;34299;50.820;4.548;2023-06-22T12:43:19;29.93;;;17.80;;
11582;SDS011;34299;50.820;4.548;2023-06-22T12:45:46;26.77;;;16.70;;
11582;SDS011;34299;50.820;4.548;2023-06-22T12:48:13;25.40;;;16.93;;
11582;SDS011;34299;50.820;4.548;2023-06-22T12:50:42;23.50;;;15.87;;
11582;SDS011;34299;50.820;4.548;2023-06-22T12:53:09;26.70;;;17.33;;
11582;SDS011;34299;50.820;4.548;2023-06-22T12:55:36;23.63;;;15.93;;
11582;SDS011;34299;50.820;4.548;2023-06-22T12:58:03;22.47;;;16.03;;
11582;SDS011;34299;50.820;4.548;2023-06-22T13:00:32;26.63;;;18.97;;
11582;SDS011;34299;50.820;4.548;2023-06-22T13:02:59;27.43;;;18.80;;
11582;SDS011;34299;50.820;4.548;2023-06-22T13:05:26;28.00;;;18.47;;
11582;SDS011;34299;50.820;4.548;2023-06-22T13:07:54;25.77;;;17.13;;
11582;SDS011;34299;50.820;4.548;2023-06-22T13:10:21;28.77;;;17.50;;
11582;SDS011;34299;50.820;4.548;2023-06-22T13:12:48;31.13;;;19.23;;
11582;SDS011;34299;50.820;4.548;2023-06-22T13:15:17;28.37;;;18.17;;
11582;SDS011;34299;50.820;4.548;2023-06-22T13:17:45;27.93;;;18.90;;
11582;SDS011;34299;50.820;4.548;2023-06-22T13:20:13;32.20;;;20.93;;
11582;SDS011;34299;50.820;4.548;2023-06-22T13:22:40;30.50;;;19.20;;
11582;SDS011;34299;50.820;4.548;2023-06-22T13:25:09;29.07;;;20.20;;
11582;SDS011;34299;50.820;4.548;2023-06-22T13:27:37;29.13;;;19.90;;
11582;SDS011;34299;50.820;4.548;2023-06-22T13:30:05;29.33;;;19.57;;
11582;SDS011;34299;50.820;4.548;2023-06-22T13:32:32;32.57;;;20.80;;
11582;SDS011;34299;50.820;4.548;2023-06-22T13:35:01;33.33;;;21.83;;
11582;SDS011;34299;50.820;4.548;2023-06-22T13:37:28;29.77;;;20.00;;
11582;SDS011;34299;50.820;4.548;2023-06-22T13:39:55;31.03;;;20.80;;
11582;SDS011;34299;50.820;4.548;2023-06-22T13:42:24;30.43;;;19.97;;
11582;SDS011;34299;50.820;4.548;2023-06-22T13:44:51;29.30;;;20.53;;
11582;SDS011;34299;50.820;4.548;2023-06-22T13:47:19;29.07;;;19.13;;
11582;SDS011;34299;50.820;4.548;2023-06-22T13:49:46;29.90;;;20.10;;
11582;SDS011;34299;50.820;4.548;2023-06-22T13:52:14;27.10;;;17.87;;
11582;SDS011;34299;50.820;4.548;2023-06-22T13:54:42;27.87;;;18.23;;
11582;SDS011;34299;50.820;4.548;2023-06-22T13:57:09;28.30;;;18.93;;
11582;SDS011;34299;50.820;4.548;2023-06-22T13:59:36;27.57;;;17.93;;
11582;SDS011;34299;50.820;4.548;2023-06-22T14:02:04;28.87;;;18.80;;
11582;SDS011;34299;50.820;4.548;2023-06-22T14:04:31;30.87;;;20.13;;
11582;SDS011;34299;50.820;4.548;2023-06-22T14:06:58;27.23;;;19.13;;
11582;SDS011;34299;50.820;4.548;2023-06-22T14:09:27;32.50;;;20.27;;
11582;SDS011;34299;50.820;4.548;2023-06-22T14:11:54;29.20;;;19.97;;
11582;SDS011;34299;50.820;4.548;2023-06-22T14:14:22;33.33;;;20.77;;
11582;SDS011;34299;50.820;4.548;2023-06-22T14:16:49;28.80;;;20.07;;
11582;SDS011;34299;50.820;4.548;2023-06-22T14:19:16;26.23;;;19.07;;
11582;SDS011;34299;50.820;4.548;2023-06-22T14:21:44;29.07;;;20.30;;
11582;SDS011;34299;50.820;4.548;2023-06-22T14:24:11;26.07;;;17.20;;
11582;SDS011;34299;50.820;4.548;2023-06-22T14:26:40;27.50;;;19.47;;
11582;SDS011;34299;50.820;4.548;2023-06-22T14:29:07;30.93;;;19.67;;
11582;SDS011;34299;50.820;4.548;2023-06-22T14:31:34;27.27;;;19.20;;
11582;SDS011;34299;50.820;4.548;2023-06-22T14:34:02;28.03;;;20.33;;
11582;SDS011;34299;50.820;4.548;2023-06-22T14:36:30;29.57;;;21.30;;
11582;SDS011;34299;50.820;4.548;2023-06-22T14:38:57;33.03;;;19.60;;
11582;SDS011;34299;50.820;4.548;2023-06-22T14:41:25;31.73;;;20.43;;
11582;SDS011;34299;50.820;4.548;2023-06-22T14:43:53;29.03;;;21.07;;
11582;SDS011;34299;50.820;4.548;2023-06-22T14:46:20;31.93;;;20.23;;
11582;SDS011;34299;50.820;4.548;2023-06-22T14:48:48;35.57;;;21.83;;
11582;SDS011;34299;50.820;4.548;2023-06-22T14:51:15;37.17;;;22.83;;